createdAt,value
2022-11-17T00:00:27.444Z,10.20
2022-11-17T00:02:55.841Z,10.30
2022-11-17T00:05:25.630Z,10.50
2022-11-17T00:07:54.716Z,10.60
2022-11-17T00:10:23.212Z,10.70
2022-11-17T00:13:08.849Z,10.70
2022-11-17T00:15:37.371Z,10.80
2022-11-17T00:18:19.705Z,10.90
2022-11-17T00:21:06.783Z,10.90
2022-11-17T00:23:48.072Z,10.90
2022-11-17T00:26:17.593Z,10.80
2022-11-17T00:28:46.204Z,10.60
2022-11-17T00:31:32.740Z,10.30
2022-11-17T00:34:07.705Z,10.20
2022-11-17T00:36:39.907Z,10.20
2022-11-17T00:39:08.920Z,10.20
2022-11-17T00:41:37.593Z,10.20
2022-11-17T00:44:06.842Z,10.20
2022-11-17T00:46:37.104Z,10.20
2022-11-17T00:49:05.921Z,10.20
2022-11-17T00:51:34.626Z,10.20
2022-11-17T00:54:04.595Z,10.30
2022-11-17T00:56:33.665Z,10.50
2022-11-17T00:59:02.240Z,10.50
2022-11-17T01:01:31.424Z,10.50
2022-11-17T01:04:04.106Z,10.40
2022-11-17T01:06:34.287Z,10.40
2022-11-17T01:09:04.877Z,10.40
2022-11-17T01:11:33.528Z,10.40
2022-11-17T01:14:02.557Z,10.40
2022-11-17T01:16:31.889Z,10.50
2022-11-17T01:19:01.794Z,10.60
2022-11-17T01:21:31.144Z,10.70
2022-11-17T01:24:01.386Z,10.70
2022-11-17T01:26:34.116Z,10.80
2022-11-17T01:29:04.139Z,10.80
2022-11-17T01:31:34.636Z,10.70
2022-11-17T01:34:03.487Z,10.60
2022-11-17T01:36:55.858Z,10.60
2022-11-17T01:39:24.812Z,10.60
2022-11-17T01:41:55.283Z,10.60
2022-11-17T01:44:49.277Z,10.60
2022-11-17T01:47:20.790Z,10.60
2022-11-17T01:49:50.278Z,10.70
2022-11-17T01:52:19.240Z,10.70
2022-11-17T01:54:49.213Z,10.70
2022-11-17T01:57:21.401Z,10.80
2022-11-17T01:59:52.456Z,10.80
2022-11-17T02:02:21.258Z,10.90
2022-11-17T02:04:57.022Z,10.90
2022-11-17T02:07:28.379Z,10.90
2022-11-17T02:09:57.921Z,11.00
2022-11-17T02:12:28.759Z,11.00
2022-11-17T02:14:57.252Z,11.00
2022-11-17T02:17:29.958Z,11.10
2022-11-17T02:20:05.883Z,11.00
2022-11-17T02:23:04.597Z,11.00
2022-11-17T02:26:14.193Z,10.90
2022-11-17T02:28:49.973Z,10.80
2022-11-17T02:31:22.325Z,10.70
2022-11-17T02:33:56.055Z,10.50
2022-11-17T02:36:30.293Z,10.40
2022-11-17T02:39:04.443Z,10.30
2022-11-17T02:41:37.482Z,10.30
2022-11-17T02:44:10.118Z,10.20
2022-11-17T02:46:45.537Z,10.10
2022-11-17T02:49:19.824Z,10.10
2022-11-17T02:51:50.405Z,10.10
2022-11-17T02:54:20.119Z,10.00
2022-11-17T02:56:48.465Z,9.90
2022-11-17T02:59:20.115Z,9.90
2022-11-17T03:02:08.152Z,9.80
2022-11-17T03:04:44.264Z,9.80
2022-11-17T03:07:24.611Z,9.90
2022-11-17T03:10:01.941Z,10.00
2022-11-17T03:12:35.504Z,10.20
2022-11-17T03:15:13.142Z,10.30
2022-11-17T03:17:48.086Z,10.40
2022-11-17T03:20:20.362Z,10.50
2022-11-17T03:22:52.570Z,10.60
2022-11-17T03:25:23.168Z,10.50
2022-11-17T03:27:54.409Z,10.50
2022-11-17T03:30:25.624Z,10.60
2022-11-17T03:32:57.005Z,10.70
2022-11-17T03:35:27.455Z,10.80
2022-11-17T03:37:57.829Z,10.80
2022-11-17T03:40:29.301Z,10.70
2022-11-17T03:43:00.429Z,10.70
2022-11-17T03:45:31.806Z,10.60
2022-11-17T03:48:03.129Z,10.60
2022-11-17T03:50:34.837Z,10.60
2022-11-17T03:53:04.570Z,10.70
2022-11-17T03:55:37.782Z,10.70
2022-11-17T03:58:08.882Z,10.60
2022-11-17T04:00:40.574Z,10.30
2022-11-17T04:03:09.051Z,10.00
2022-11-17T04:05:37.561Z,9.70
2022-11-17T04:08:06.185Z,9.60
2022-11-17T04:10:54.644Z,9.40
2022-11-17T04:13:39.510Z,9.30
2022-11-17T04:16:09.772Z,9.30
2022-11-17T04:18:38.372Z,9.30
2022-11-17T04:21:07.153Z,9.40
2022-11-17T04:23:35.909Z,9.60
2022-11-17T04:26:22.105Z,9.80
2022-11-17T04:28:51.549Z,9.90
2022-11-17T04:31:23.792Z,10.00
2022-11-17T04:33:53.507Z,9.90
2022-11-17T04:36:23.783Z,9.80
2022-11-17T04:38:54.022Z,9.70
2022-11-17T04:41:41.105Z,9.70
2022-11-17T04:44:11.292Z,9.70
2022-11-17T04:46:41.850Z,9.80
2022-11-17T04:49:10.276Z,9.70
2022-11-17T04:51:39.199Z,9.50
2022-11-17T04:54:08.236Z,9.30
2022-11-17T04:56:37.608Z,9.20
2022-11-17T04:59:06.697Z,9.20
2022-11-17T05:01:35.252Z,9.20
2022-11-17T05:04:06.607Z,9.20
2022-11-17T05:06:36.956Z,9.30
2022-11-17T05:09:07.211Z,9.30
2022-11-17T05:11:53.265Z,9.40
2022-11-17T05:14:23.381Z,9.50
2022-11-17T05:17:10.381Z,9.60
2022-11-17T05:19:44.208Z,9.50
2022-11-17T05:22:31.740Z,9.30
2022-11-17T05:25:00.349Z,9.10
2022-11-17T05:27:28.777Z,9.00
2022-11-17T05:29:57.216Z,8.90
2022-11-17T05:32:25.661Z,8.70
2022-11-17T05:34:55.524Z,8.60
2022-11-17T05:37:24.005Z,8.50
2022-11-17T05:39:52.410Z,8.50
2022-11-17T05:42:20.829Z,8.40
2022-11-17T05:44:49.302Z,8.40
2022-11-17T05:47:17.775Z,8.40
2022-11-17T05:49:46.185Z,8.40
2022-11-17T05:52:15.949Z,8.40
2022-11-17T05:54:44.459Z,8.30
2022-11-17T05:57:15.035Z,8.30
2022-11-17T05:59:46.718Z,8.30
2022-11-17T06:02:18.491Z,8.30
2022-11-17T06:04:47.406Z,8.30
2022-11-17T06:07:17.957Z,8.30
2022-11-17T06:09:47.859Z,8.30
2022-11-17T06:12:16.451Z,8.30
2022-11-17T06:14:44.883Z,8.30
2022-11-17T06:17:21.917Z,8.30
2022-11-17T06:19:53.330Z,8.40
2022-11-17T06:22:23.266Z,8.40
2022-11-17T06:24:51.761Z,8.40
2022-11-17T06:27:20.224Z,8.40
2022-11-17T06:29:48.922Z,8.30
2022-11-17T06:32:18.237Z,8.30
2022-11-17T06:34:54.884Z,8.20
2022-11-17T06:37:26.113Z,8.20
2022-11-17T06:39:54.844Z,8.20
2022-11-17T06:42:43.889Z,8.10
2022-11-17T06:45:13.389Z,8.00
2022-11-17T06:47:41.886Z,8.00
2022-11-17T06:50:10.954Z,7.80
2022-11-17T06:52:40.891Z,7.80
2022-11-17T06:55:10.001Z,7.60
2022-11-17T06:57:38.596Z,7.40
2022-11-17T07:00:08.293Z,7.30
2022-11-17T07:02:37.727Z,7.20
2022-11-17T07:05:06.837Z,7.10
2022-11-17T07:07:35.415Z,7.00
2022-11-17T07:10:05.807Z,6.80
2022-11-17T07:12:34.831Z,6.90
2022-11-17T07:15:03.396Z,7.00
2022-11-17T07:17:31.895Z,7.00
2022-11-17T07:20:00.483Z,6.60
2022-11-17T07:22:29.020Z,6.70
2022-11-17T07:24:57.500Z,6.70
2022-11-17T07:27:27.340Z,6.70
2022-11-17T07:29:55.877Z,6.90
2022-11-17T07:32:24.433Z,6.90
2022-11-17T07:34:53.023Z,6.80
2022-11-17T07:37:21.761Z,6.80
2022-11-17T07:39:50.379Z,6.80
2022-11-17T07:42:18.827Z,6.60
2022-11-17T07:44:48.640Z,6.60
2022-11-17T07:47:17.210Z,6.70
2022-11-17T07:49:45.701Z,6.80
2022-11-17T07:52:14.180Z,6.80
2022-11-17T07:54:42.738Z,6.70
2022-11-17T07:57:11.211Z,6.80
2022-11-17T07:59:39.671Z,6.90
2022-11-17T08:02:10.329Z,6.90
2022-11-17T08:04:38.808Z,7.00
2022-11-17T08:07:07.284Z,7.10
2022-11-17T08:09:35.775Z,7.10
2022-11-17T08:12:04.261Z,7.00
2022-11-17T08:14:32.746Z,7.10
2022-11-17T08:17:01.231Z,7.20
2022-11-17T08:19:31.200Z,7.20
2022-11-17T08:22:02.508Z,7.20
2022-11-17T08:24:31.020Z,7.20
2022-11-17T08:26:59.464Z,7.20
2022-11-17T08:29:28.057Z,7.30
2022-11-17T08:31:56.619Z,7.40
2022-11-17T08:34:25.097Z,7.40
2022-11-17T08:36:54.944Z,7.50
2022-11-17T08:39:23.493Z,7.50
2022-11-17T08:41:52.831Z,7.60
2022-11-17T08:44:21.327Z,7.60
2022-11-17T08:46:50.100Z,7.60
2022-11-17T08:49:18.550Z,7.50
2022-11-17T08:51:47.140Z,7.50
2022-11-17T08:54:17.096Z,7.50
2022-11-17T08:56:46.553Z,7.50
2022-11-17T08:59:15.471Z,7.60
2022-11-17T09:01:43.980Z,7.70
2022-11-17T09:04:12.460Z,7.70
2022-11-17T09:06:40.980Z,7.70
2022-11-17T09:09:09.444Z,7.60
2022-11-17T09:11:39.324Z,7.60
2022-11-17T09:14:08.227Z,7.60
2022-11-17T09:16:36.888Z,7.70
2022-11-17T09:19:05.379Z,7.70
2022-11-17T09:21:33.879Z,7.60
2022-11-17T09:24:02.307Z,7.70
2022-11-17T09:26:30.759Z,7.80
2022-11-17T09:29:03.907Z,7.90
2022-11-17T09:31:32.585Z,7.90
2022-11-17T09:34:05.294Z,8.00
2022-11-17T09:36:36.692Z,7.90
2022-11-17T09:39:05.406Z,7.90
2022-11-17T09:41:37.115Z,7.90
2022-11-17T09:44:15.730Z,8.00
2022-11-17T09:46:55.793Z,8.00
2022-11-17T09:49:32.182Z,8.10
2022-11-17T09:52:04.750Z,8.10
2022-11-17T09:54:39.987Z,8.20
2022-11-17T09:57:17.050Z,8.20
2022-11-17T09:59:46.882Z,8.30
2022-11-17T10:02:15.383Z,8.40
2022-11-17T10:04:43.891Z,8.40
2022-11-17T10:07:12.648Z,8.50
2022-11-17T10:09:43.819Z,8.50
2022-11-17T10:12:17.607Z,8.50
2022-11-17T10:14:47.886Z,8.60
2022-11-17T10:17:16.346Z,8.60
2022-11-17T10:19:46.244Z,8.60
2022-11-17T10:22:21.058Z,8.60
2022-11-17T10:24:51.699Z,8.60
2022-11-17T10:27:21.988Z,8.60
2022-11-17T10:30:08.072Z,8.70
2022-11-17T10:32:39.330Z,8.70
2022-11-17T10:35:18.126Z,8.70
2022-11-17T10:37:54.038Z,8.70
2022-11-17T10:40:25.905Z,8.80
2022-11-17T10:42:58.282Z,8.90
2022-11-17T10:45:28.203Z,9.00
2022-11-17T10:48:19.649Z,9.10
2022-11-17T10:50:54.002Z,9.10
2022-11-17T10:53:31.390Z,9.20
2022-11-17T10:56:07.501Z,9.30
2022-11-17T10:58:57.952Z,9.40
2022-11-17T11:01:32.812Z,9.50
2022-11-17T11:04:01.432Z,9.70
2022-11-17T11:06:31.026Z,9.90
2022-11-17T11:09:02.631Z,10.10
2022-11-17T11:11:38.231Z,10.20
2022-11-17T11:14:14.730Z,10.30
2022-11-17T11:16:48.231Z,10.40
2022-11-17T11:19:18.370Z,10.40
2022-11-17T11:22:16.972Z,10.50
2022-11-17T11:24:53.439Z,10.60
2022-11-17T11:28:02.116Z,10.60
2022-11-17T11:30:32.585Z,10.60
2022-11-17T11:33:10.578Z,10.70
2022-11-17T11:35:50.218Z,10.70
2022-11-17T11:38:39.452Z,10.80
2022-11-17T11:41:20.327Z,10.80
2022-11-17T11:43:58.558Z,10.90
2022-11-17T11:46:36.895Z,11.00
2022-11-17T11:49:15.370Z,11.00
2022-11-17T11:51:44.438Z,11.10
2022-11-17T11:54:15.612Z,11.10
2022-11-17T11:56:46.141Z,11.10
2022-11-17T11:59:18.001Z,11.10
2022-11-17T12:01:51.697Z,11.10
2022-11-17T12:04:26.763Z,11.20
2022-11-17T12:07:00.588Z,11.20
2022-11-17T12:09:46.043Z,11.40
2022-11-17T12:12:19.272Z,11.40
2022-11-17T12:15:33.516Z,11.50
2022-11-17T12:18:04.973Z,11.50
2022-11-17T12:20:59.451Z,11.60
2022-11-17T12:23:38.164Z,11.60
2022-11-17T12:26:06.814Z,11.70
2022-11-17T12:28:37.128Z,11.70
2022-11-17T12:31:09.997Z,11.60
2022-11-17T12:34:22.597Z,11.70
2022-11-17T12:37:20.229Z,11.60
2022-11-17T12:39:57.702Z,11.60
2022-11-17T12:42:26.568Z,11.70
2022-11-17T12:45:00.315Z,11.70
2022-11-17T12:47:30.729Z,11.70
2022-11-17T12:50:41.325Z,11.70
2022-11-17T12:53:34.788Z,11.70
2022-11-17T12:56:31.376Z,11.70
2022-11-17T12:59:15.456Z,11.60
2022-11-17T13:01:48.636Z,11.50
2022-11-17T13:04:18.891Z,11.50
2022-11-17T13:07:05.368Z,11.50
2022-11-17T13:09:36.688Z,11.30
2022-11-17T13:12:06.848Z,11.10
2022-11-17T13:14:37.063Z,11.00
2022-11-17T13:17:10.987Z,10.90
2022-11-17T13:19:41.343Z,11.00
2022-11-17T13:22:16.140Z,11.00
2022-11-17T13:24:47.232Z,11.00
2022-11-17T13:27:22.222Z,11.00
2022-11-17T13:29:50.682Z,11.00
2022-11-17T13:32:21.465Z,11.00
2022-11-17T13:34:52.185Z,11.00
2022-11-17T13:37:25.383Z,11.10
2022-11-17T13:40:03.006Z,11.10
2022-11-17T13:42:33.250Z,11.10
2022-11-17T13:45:04.304Z,11.10
2022-11-17T13:47:46.957Z,11.10
2022-11-17T13:50:34.431Z,11.20
2022-11-17T13:53:05.682Z,11.10
2022-11-17T13:55:36.766Z,11.10
2022-11-17T13:58:08.828Z,11.00
2022-11-17T14:00:37.416Z,11.00
2022-11-17T14:03:07.311Z,11.10
2022-11-17T14:05:35.851Z,11.20
2022-11-17T14:08:21.327Z,11.20
2022-11-17T14:10:51.256Z,11.20
2022-11-17T14:13:25.111Z,11.20
2022-11-17T14:15:57.348Z,11.10
2022-11-17T14:18:36.850Z,11.10
2022-11-17T14:21:07.762Z,11.10
2022-11-17T14:23:36.247Z,11.00
2022-11-17T14:26:06.559Z,11.00
2022-11-17T14:28:35.038Z,10.90
2022-11-17T14:31:03.640Z,11.00
2022-11-17T14:33:32.138Z,11.00
2022-11-17T14:36:01.278Z,11.10
2022-11-17T14:38:30.595Z,11.10
2022-11-17T14:40:59.756Z,11.10
2022-11-17T14:43:30.021Z,11.10
2022-11-17T14:45:58.788Z,11.00
2022-11-17T14:48:27.366Z,10.90
2022-11-17T14:50:59.951Z,10.90
2022-11-17T14:53:28.710Z,10.80
2022-11-17T14:55:57.136Z,10.80
2022-11-17T14:58:25.571Z,10.80
2022-11-17T15:00:56.224Z,10.70
2022-11-17T15:03:24.793Z,10.70
2022-11-17T15:05:53.282Z,10.60
2022-11-17T15:08:21.730Z,10.60
2022-11-17T15:10:51.339Z,10.50
2022-11-17T15:13:19.819Z,10.50
2022-11-17T15:15:48.297Z,10.50
2022-11-17T15:18:18.142Z,10.40
2022-11-17T15:20:47.347Z,10.40
2022-11-17T15:23:16.042Z,10.40
2022-11-17T15:25:44.517Z,10.30
2022-11-17T15:28:18.911Z,10.20
2022-11-17T15:30:49.927Z,10.20
2022-11-17T15:33:19.771Z,10.10
2022-11-17T15:35:48.323Z,10.00
2022-11-17T15:38:16.886Z,9.90
2022-11-17T15:40:45.344Z,9.90
2022-11-17T15:43:13.799Z,9.90
2022-11-17T15:45:42.215Z,9.80
2022-11-17T15:48:13.653Z,9.80
2022-11-17T15:50:47.604Z,9.70
2022-11-17T15:53:16.207Z,9.70
2022-11-17T15:55:44.800Z,9.60
2022-11-17T15:58:13.227Z,9.50
2022-11-17T16:00:41.730Z,9.50
2022-11-17T16:03:10.245Z,9.50
2022-11-17T16:05:38.669Z,9.40
2022-11-17T16:08:08.654Z,9.40
2022-11-17T16:10:37.379Z,9.60
2022-11-17T16:13:05.890Z,9.50
2022-11-17T16:15:34.657Z,9.40
2022-11-17T16:18:03.185Z,9.40
2022-11-17T16:20:31.829Z,9.30
2022-11-17T16:23:00.270Z,9.20
2022-11-17T16:25:30.083Z,9.20
2022-11-17T16:27:58.574Z,9.10
2022-11-17T16:30:32.773Z,9.00
2022-11-17T16:33:04.011Z,8.90
2022-11-17T16:35:32.563Z,8.80
2022-11-17T16:38:00.992Z,8.80
2022-11-17T16:40:31.487Z,8.80
2022-11-17T16:43:00.184Z,8.70
2022-11-17T16:45:28.835Z,8.70
2022-11-17T16:47:57.408Z,8.70
2022-11-17T16:50:26.058Z,8.60
2022-11-17T16:52:54.735Z,8.60
2022-11-17T16:55:23.263Z,8.50
2022-11-17T16:57:53.111Z,8.50
2022-11-17T17:00:21.995Z,8.40
2022-11-17T17:02:50.839Z,8.40
2022-11-17T17:05:19.483Z,8.30
2022-11-17T17:07:48.108Z,8.20
2022-11-17T17:10:16.664Z,8.20
2022-11-17T17:12:45.084Z,8.10
2022-11-17T17:15:15.173Z,8.10
2022-11-17T17:17:43.618Z,8.00
2022-11-17T17:20:12.914Z,8.00
2022-11-17T17:22:41.507Z,7.90
2022-11-17T17:25:10.605Z,7.90
2022-11-17T17:27:39.063Z,7.90
2022-11-17T17:30:08.442Z,7.80
2022-11-17T17:32:38.275Z,7.80
2022-11-17T17:35:08.034Z,7.80
2022-11-17T17:37:36.699Z,7.70
2022-11-17T17:40:05.816Z,7.60
2022-11-17T17:42:34.248Z,7.60
2022-11-17T17:45:02.771Z,7.60
2022-11-17T17:47:31.287Z,7.50
2022-11-17T17:50:01.241Z,7.50
2022-11-17T17:52:29.665Z,7.50
2022-11-17T17:54:58.198Z,7.50
2022-11-17T17:57:29.936Z,7.50
2022-11-17T18:00:02.313Z,7.50
2022-11-17T18:02:30.764Z,7.50
2022-11-17T18:05:00.664Z,7.40
2022-11-17T18:07:29.198Z,7.40
2022-11-17T18:09:57.686Z,7.40
2022-11-17T18:12:27.042Z,7.40
2022-11-17T18:14:56.335Z,7.40
2022-11-17T18:17:24.818Z,7.40
2022-11-17T18:19:53.394Z,7.40
2022-11-17T18:22:23.278Z,7.40
2022-11-17T18:24:53.801Z,7.40
2022-11-17T18:27:26.373Z,7.30
2022-11-17T18:29:54.857Z,7.30
2022-11-17T18:32:23.790Z,7.30
2022-11-17T18:34:52.357Z,7.30
2022-11-17T18:37:22.236Z,7.30
2022-11-17T18:39:50.819Z,7.30
2022-11-17T18:42:19.341Z,7.40
2022-11-17T18:44:47.851Z,7.40
2022-11-17T18:47:16.335Z,7.50
2022-11-17T18:49:44.826Z,7.50
2022-11-17T18:52:13.374Z,7.50
2022-11-17T18:54:43.166Z,7.60
2022-11-17T18:57:11.609Z,7.60
2022-11-17T18:59:40.115Z,7.60
2022-11-17T19:02:10.493Z,7.60
2022-11-17T19:04:39.002Z,7.60
2022-11-17T19:07:07.471Z,7.60
2022-11-17T19:09:36.216Z,7.60
2022-11-17T19:12:08.755Z,7.60
2022-11-17T19:14:37.207Z,7.60
2022-11-17T19:17:05.703Z,7.60
2022-11-17T19:19:34.198Z,7.60
2022-11-17T19:22:02.632Z,7.60
2022-11-17T19:24:31.111Z,7.50
2022-11-17T19:26:59.660Z,7.50
2022-11-17T19:29:29.909Z,7.60
2022-11-17T19:31:58.458Z,7.60
2022-11-17T19:34:26.926Z,7.50
2022-11-17T19:36:55.411Z,7.50
2022-11-17T19:39:24.024Z,7.50
2022-11-17T19:41:53.406Z,7.50
2022-11-17T19:44:21.811Z,7.40
2022-11-17T19:46:51.721Z,7.40
2022-11-17T19:49:20.566Z,7.40
2022-11-17T19:51:49.242Z,7.30
2022-11-17T19:54:17.743Z,7.30
2022-11-17T19:56:46.204Z,7.30
2022-11-17T19:59:16.706Z,7.30
2022-11-17T20:01:46.229Z,7.30
2022-11-17T20:04:16.249Z,7.20
2022-11-17T20:06:45.043Z,7.10
2022-11-17T20:09:15.253Z,7.10
2022-11-17T20:11:44.574Z,7.10
2022-11-17T20:14:14.517Z,7.00
2022-11-17T20:16:43.032Z,7.00
2022-11-17T20:19:13.825Z,7.00
2022-11-17T20:21:43.942Z,7.00
2022-11-17T20:24:12.569Z,7.00
2022-11-17T20:26:43.010Z,6.90
2022-11-17T20:29:11.511Z,6.90
2022-11-17T20:31:40.161Z,6.90
2022-11-17T20:34:08.687Z,6.90
2022-11-17T20:36:37.301Z,6.90
2022-11-17T20:39:08.178Z,6.90
2022-11-17T20:41:36.696Z,6.90
2022-11-17T20:44:05.583Z,6.90
2022-11-17T20:46:34.198Z,6.80
2022-11-17T20:49:02.712Z,6.80
2022-11-17T20:51:32.268Z,6.70
2022-11-17T20:54:01.260Z,6.70
2022-11-17T20:56:31.210Z,6.60
2022-11-17T20:59:00.311Z,6.60
2022-11-17T21:01:29.217Z,6.50
2022-11-17T21:03:57.747Z,6.50
2022-11-17T21:06:26.191Z,6.50
2022-11-17T21:08:54.699Z,6.50
2022-11-17T21:11:42.283Z,6.50
2022-11-17T21:14:14.036Z,6.40
2022-11-17T21:16:45.553Z,6.30
2022-11-17T21:19:15.365Z,6.30
2022-11-17T21:21:44.075Z,6.30
2022-11-17T21:24:13.036Z,6.20
2022-11-17T21:26:42.596Z,6.20
2022-11-17T21:29:12.680Z,6.20
2022-11-17T21:31:41.223Z,6.10
2022-11-17T21:34:15.091Z,6.10
2022-11-17T21:36:43.854Z,6.10
2022-11-17T21:39:18.648Z,6.00
2022-11-17T21:41:47.354Z,6.00
2022-11-17T21:44:17.187Z,6.00
2022-11-17T21:46:45.639Z,5.90
2022-11-17T21:49:14.475Z,5.90
2022-11-17T21:51:43.123Z,5.90
2022-11-17T21:54:11.653Z,5.90
2022-11-17T21:56:40.766Z,5.90
2022-11-17T21:59:12.917Z,5.80
2022-11-17T22:01:42.801Z,5.90
2022-11-17T22:04:12.752Z,5.90
2022-11-17T22:06:41.294Z,5.80
2022-11-17T22:09:09.997Z,5.80
2022-11-17T22:11:39.084Z,5.90
2022-11-17T22:14:10.199Z,6.10
2022-11-17T22:16:39.642Z,6.20
2022-11-17T22:19:10.271Z,6.20
2022-11-17T22:21:39.289Z,6.10
2022-11-17T22:24:10.065Z,6.00
2022-11-17T22:26:40.920Z,6.30
2022-11-17T22:29:12.190Z,6.90
2022-11-17T22:31:40.694Z,7.50
2022-11-17T22:34:10.576Z,7.20
2022-11-17T22:36:39.777Z,6.90
2022-11-17T22:39:09.314Z,7.10
2022-11-17T22:41:37.902Z,7.40
2022-11-17T22:44:06.745Z,7.60
2022-11-17T22:46:36.087Z,7.70
2022-11-17T22:49:04.674Z,7.80
2022-11-17T22:51:52.158Z,7.80
2022-11-17T22:54:20.789Z,7.70
2022-11-17T22:56:49.359Z,7.80
2022-11-17T22:59:18.129Z,7.80
2022-11-17T23:01:46.837Z,7.80
2022-11-17T23:04:16.396Z,7.70
2022-11-17T23:06:46.428Z,7.70
2022-11-17T23:09:14.926Z,7.60
2022-11-17T23:11:43.871Z,7.60
2022-11-17T23:14:14.336Z,7.60
2022-11-17T23:16:43.533Z,7.90
2022-11-17T23:19:15.214Z,7.90
2022-11-17T23:21:45.474Z,7.90
2022-11-17T23:24:14.761Z,7.80
2022-11-17T23:26:43.882Z,7.70
2022-11-17T23:29:12.364Z,7.80
2022-11-17T23:31:40.994Z,7.80
2022-11-17T23:34:10.815Z,7.70
2022-11-17T23:36:39.358Z,7.60
2022-11-17T23:39:09.370Z,7.60
2022-11-17T23:41:38.086Z,7.50
2022-11-17T23:44:06.925Z,7.50
2022-11-17T23:46:35.376Z,7.70
2022-11-17T23:49:03.999Z,7.80
2022-11-17T23:51:32.402Z,7.80
2022-11-17T23:54:01.508Z,7.70
2022-11-17T23:56:34.661Z,7.60
2022-11-17T23:59:03.647Z,7.60
